Terminal Aerodrome Forecast
Issued by NWS Los Angeles, CA

Home | Current Version | Previous Version | Text Only | Print | Product List | Glossary On
Versions: 1 2 3 4 5 6 7 8 9 10 11 12 13 14 15 16 17 18 19 20 21 22 23 24 25 26 27 28 29 30 31 32
000
FTUS46 KLOX 131700
TAFSMX
TAF
KSMX 131724Z 1318/1418 31010KT P6SM SKC
     FM132000 30017KT P6SM SKC
     FM140100 30012KT P6SM SKC
     FM140400 30007KT 5SM BR OVC004
     FM140900 VRB03KT 1/2SM FG VV002
     FM141300 VRB03KT 2SM BR OVC003
     FM141600 VRB03KT P6SM BKN120=

USA.gov is the U.S. government's official web portal to all federal, state and local government web resources and services.